Station ATGM1 - 8413320 - Bar Harbor, ME Image indicating link to RSS feed of recent meteorological observations for station ATGM1


Conditions at ATGM1 as of
(10:48 pm EDT on 09/02/2026)
0248 GMT on 09/03/2026:
     

Click on the graph icon in the table below to see a time series plot of the last five days of that observation.

5-day plot - Wind Direction Wind Direction (WDIR):SSE ( 160 deg true )
5-day plot - Wind Speed Wind Speed (WSPD): 5.1 kts
5-day plot - Wind Gust Wind Gust (GST): 6.0 kts
5-day plot - Atmospheric Pressure Atmospheric Pressure (PRES):30.14 in
5-day plot - Air Temperature Air Temperature (ATMP): 57.4 °F
5-day plot - Water Temperature Water Temperature (WTMP): 57.7 °F
5-day plot - Wind Speed at 10 Meters Wind Speed at 10 meters (WSPD10M): 5.8 kts
5-day plot - Wind Speed at 20 Meters Wind Speed at 20 meters (WSPD20M): 5.8 kts
5-day plot -  Wind Speed, Wind Gust and Atmospheric Pressure Combined plot of Wind Speed, Gust, and Air Pressure
NOS Water Level Observation Network Water Level
Previous observations
TIME
(EDT)
5-day plot - Wind Direction
WDIR
 
5-day plot - Wind Speed
WSPD
kts
5-day plot - Wind Gust
GST
kts
5-day plot - Wave Height
WVHT
ft
5-day plot - Dominant Wave Period
DPD
sec
5-day plot - Average Wave Period
APD
sec
5-day plot - Mean Wave Direction
MWD
 
5-day plot - Atmospheric Pressure
PRES
in
5-day plot - Pressure Tendency
PTDY
in
5-day plot - Air Temperature
ATMP
°F
5-day plot - Water Temperature
WTMP
°F
5-day plot - Dew Point
DEWP
°F
5-day plot - Salinity
SAL
psu
5-day plot - Visibility
VIS
nmi
5-day plot - Tide (above MLLW)
TIDE
ft
2026-09-02 10:42 pmSSE 5.1 7.0----30.14- 57.4 57.7----
2026-09-02 10:36 pmSSE 6.0 7.0----30.14- 57.2 57.7----
2026-09-02 10:30 pmSSE 6.0 8.0----30.14- 57.4 57.7----
2026-09-02 10:24 pmSSE 7.0 8.9----30.13- 57.6 57.7----
2026-09-02 10:18 pmSSE 8.0 11.1----30.13-- 57.7----
2026-09-02 10:12 pmSSE 6.0 9.9----30.13-- 57.7----
2026-09-02 10:06 pm S 5.1 8.9----30.14-- 57.7----
2026-09-02 10:00 pmSSE 5.1 8.9----30.14-0.02 57.6 57.7----
2026-09-02 09:54 pmSSE 6.0 11.1----30.14- 57.7 57.7----
2026-09-02 09:48 pmSSE 6.0 8.9----30.14- 57.9 57.7----
2026-09-02 09:42 pmSSE 7.0 8.9----30.14- 57.9 57.7----
2026-09-02 09:36 pmSSE 6.0 11.1----30.14- 58.1 57.9----
2026-09-02 09:30 pm S 5.1 8.9----30.14- 58.3 57.9----
2026-09-02 09:24 pmSSE 7.0 8.9----30.14- 58.5 57.9----
2026-09-02 09:18 pmSSE 7.0 11.1----30.14-- 57.9----
2026-09-02 09:12 pm S 7.0 11.1----30.14-- 57.9----
2026-09-02 09:06 pmSSE 6.0 8.0----30.14-- 58.1----
2026-09-02 09:00 pmSSE 6.0 8.9----30.14-0.02 58.6 58.1----
2026-09-02 08:54 pmSSE 5.1 8.0----30.14- 58.6 58.1----
2026-09-02 08:48 pmSSE 5.1 8.0----30.15- 58.5 58.1----
2026-09-02 08:42 pmSSE 5.1 8.0----30.15- 58.5 58.1----
2026-09-02 08:36 pmSSE 5.1 8.0----30.15- 58.3 58.1----
2026-09-02 08:30 pmSSE 7.0 8.0----30.15- 58.1 58.1----
2026-09-02 08:24 pmSSE 7.0 8.9----30.15- 58.3 58.1----
2026-09-02 08:18 pmSSE 6.0 8.0----30.15-- 58.1----
2026-09-02 08:12 pmSSE 6.0 9.9----30.14-- 57.9----
2026-09-02 08:06 pmSSE 6.0 8.9----30.14-- 57.9----
2026-09-02 08:00 pm S 5.1 7.0----30.14-0.02 58.1 57.9----
2026-09-02 07:54 pm S 5.1 7.0----30.14- 58.3 57.9----
2026-09-02 07:48 pm S 5.1 8.0----30.14-- 58.1----
2026-09-02 07:42 pm S 5.1 6.0----30.14-- 58.1----
2026-09-02 07:36 pmSSE 4.1 8.0----30.14-- 58.1----
2026-09-02 07:30 pm S 5.1 8.0----30.14- 58.6 58.1----
2026-09-02 07:24 pm S 6.0 8.9----30.14- 58.6 58.1----
2026-09-02 07:18 pm S 6.0 8.9----30.15-- 57.9----
2026-09-02 07:00 pm S 5.1 7.0----30.16-0.02 58.6 58.1----
2026-09-02 06:54 pm S 5.1 8.0----30.16- 58.6 58.1----
2026-09-02 06:48 pmSSE 5.1 7.0----30.16- 58.8 58.1----
2026-09-02 06:42 pm S 5.1 7.0----30.16- 59.0 58.1----
2026-09-02 06:36 pm S 5.1 8.0----30.16- 59.2 58.1----
2026-09-02 06:30 pm S 4.1 8.0----30.16- 59.2 58.1----
2026-09-02 06:24 pm S 6.0 8.9----30.16- 59.4 58.1----
2026-09-02 06:18 pmSSE 5.1 9.9----30.16-- 58.1----
2026-09-02 06:12 pmSSE 5.1 9.9----30.16-- 58.1----
2026-09-02 06:06 pmSSE 6.0 8.9----30.16-- 58.1----
2026-09-02 06:00 pmSSE 7.0 9.9----30.16-0.01 60.1 58.3----
2026-09-02 05:54 pmSSE 8.0 11.1----30.16- 60.1 58.3----
2026-09-02 05:48 pmSSE 7.0 9.9----30.16- 60.3 58.3----
2026-09-02 05:42 pmSSE 7.0 11.1----30.16- 60.4 58.1----
2026-09-02 05:36 pmSSE 7.0 9.9----30.16- 60.6 58.1----
2026-09-02 05:30 pmSSE 7.0 9.9----30.16- 60.6 58.1----
2026-09-02 05:24 pmSSE 7.0 11.1----30.16- 60.6 58.1----
2026-09-02 05:18 pmSSE 6.0 9.9----30.16-- 58.1----
2026-09-02 05:12 pmSSE 7.0 11.1----30.16-- 58.1----
2026-09-02 05:06 pmSSE 8.0 12.0----30.16-- 58.1----
2026-09-02 05:00 pmSSE 6.0 12.0----30.17-0.02 60.8 58.1----
2026-09-02 04:54 pmSSE 7.0 11.1----30.17- 60.6 58.1----
2026-09-02 04:48 pmSSE 8.0 9.9----30.17- 61.0 58.1----
2026-09-02 04:42 pmSSE 8.9 12.0----30.17- 61.0 58.1----
2026-09-02 04:36 pmSSE 7.0 9.9----30.17- 61.2 58.1----
2026-09-02 04:30 pmSSE 8.9 12.0----30.18- 61.3 58.3----
2026-09-02 04:24 pmSSE 6.0 9.9----30.18- 62.1 58.3----
2026-09-02 04:18 pm S 7.0 12.0----30.18-- 58.1----
2026-09-02 04:12 pm S 7.0 11.1----30.18-- 58.1----
2026-09-02 04:06 pmSSE 8.9 13.0----30.18-- 58.1----
2026-09-02 04:00 pm S 7.0 12.0----30.18-0.02 62.4 57.9----
2026-09-02 03:54 pmSSE 9.9 13.0----30.18- 62.2 57.9----
2026-09-02 03:48 pmSSE 7.0 11.1----30.19- 62.6 58.1----
2026-09-02 03:42 pmSSE 9.9 12.0----30.19- 62.6 58.1----
2026-09-02 03:36 pmSSE 9.9 12.0----30.18- 62.8 57.7----
2026-09-02 03:30 pmSSE 7.0 11.1----30.18- 63.1 57.9----
2026-09-02 03:24 pmSSE 8.0 12.0----30.18- 63.0 58.1----
2026-09-02 03:18 pmSSE 8.9 12.0----30.18-- 58.3----
2026-09-02 03:12 pmSSE 8.0 11.1----30.18-- 58.1----
2026-09-02 03:06 pmSSE 8.0 12.0----30.18-- 57.9----
2026-09-02 03:00 pmSSE 9.9 12.0----30.18-0.03 63.1 57.7----
2026-09-02 02:54 pmSSE 8.0 11.1----30.18- 63.5 57.4----
2026-09-02 02:48 pmSSE 8.9 12.0----30.18- 63.1 57.4----
2026-09-02 02:42 pmSSE 8.9 12.0----30.18- 63.3 57.4----
2026-09-02 02:36 pmSSE 9.9 14.0----30.18- 63.3 57.2----
2026-09-02 02:30 pmSSE 11.1 15.0----30.19- 63.5 57.4----
2026-09-02 02:24 pmSSE 12.0 15.0----30.18- 63.9 57.6----
2026-09-02 02:18 pmSSE 11.1 14.0----30.18-- 57.6----
2026-09-02 02:12 pmSSE 11.1 14.0----30.18-- 57.6----
2026-09-02 02:06 pmSSE 9.9 14.0----30.18-- 57.6----
2026-09-02 02:00 pmSSE 12.0 14.0----30.19-0.02 63.7 57.6----
2026-09-02 01:54 pmSSE 11.1 15.0----30.19- 64.0 57.6----
2026-09-02 01:48 pmSSE 11.1 13.0----30.19-- 57.6----
2026-09-02 01:42 pmSSE 9.9 14.0----30.19-- 57.6----
2026-09-02 01:36 pmSSE 11.1 14.0----30.20-- 57.6----
2026-09-02 01:30 pmSSE 11.1 14.0----30.20- 64.2 57.6----
2026-09-02 01:24 pmSSE 12.0 13.0----30.20- 64.2 57.4----
2026-09-02 01:18 pmSSE 11.1 13.0----30.20-- 57.4----
2026-09-02 01:12 pmSSE 11.1 13.0----30.20-- 57.4----
2026-09-02 01:06 pmSSE 9.9 13.0----30.20-- 57.4----
2026-09-02 01:00 pmSSE 9.9 13.0----30.20+0.00 64.0 57.2----
2026-09-02 12:54 pmSSE 9.9 12.0----30.20- 64.6 57.2----
2026-09-02 12:48 pmSSE 9.9 13.0----30.20- 64.8 57.2----
2026-09-02 12:42 pmSSE 9.9 12.0----30.20- 64.6 57.2----
2026-09-02 12:36 pmSSE 8.9 13.0----30.20- 65.1 57.2----
2026-09-02 12:30 pmSSE 8.9 13.0----30.20- 65.1 57.2----
2026-09-02 12:24 pmSSE 8.9 13.0----30.20- 64.9 57.4----
2026-09-02 12:18 pmSSE 9.9 12.0----30.20-- 57.4----
2026-09-02 12:12 pmSSE 9.9 12.0----30.20-- 57.6----
2026-09-02 12:06 pmSSE 9.9 12.0----30.20-- 57.6----
2026-09-02 12:00 pmSSE 8.9 12.0----30.20+0.02 64.8 57.6----
2026-09-02 11:54 amSSE 8.0 11.1----30.20- 64.6 57.6----
2026-09-02 11:48 amSSE 8.0 11.1----30.20-- 57.6----
2026-09-02 11:42 amSSE 8.0 11.1----30.20-- 57.6----
2026-09-02 11:36 amSSE 8.9 11.1----30.20-- 57.7----
2026-09-02 11:30 amSSE 8.0 11.1----30.20- 64.9 57.7----
2026-09-02 11:24 amSSE 8.0 11.1----30.20- 65.1 57.7----
2026-09-02 11:18 amSSE 8.0 12.0----30.20-- 57.7----
2026-09-02 11:12 amSSE 8.0 11.1----30.20-- 57.7----
2026-09-02 11:06 amSSE 7.0 9.9----30.20-- 57.7----
2026-09-02 11:00 amSSE 8.0 11.1----30.20+0.01 64.6 57.7----
2026-09-02 10:54 amSSE 7.0 8.9----30.21- 63.9 57.7----
2026-09-02 10:48 amSSE 5.1 8.9----30.21- 64.6 57.7----
2026-09-02 10:42 amSSE 5.1 8.9----30.21- 64.6 57.7----
2026-09-02 10:36 amSSE 5.1 8.0----30.21- 64.6 57.7----
2026-09-02 10:30 amSSE 5.1 6.0----30.21- 64.6 57.7----
2026-09-02 10:24 am SE 4.1 5.1----30.21- 64.0 57.7----
2026-09-02 10:18 am SE 4.1 6.0----30.21-- 57.7----
2026-09-02 10:12 amSSE 4.1 6.0----30.21-- 57.7----
2026-09-02 10:06 amSSE 4.1 6.0----30.20-- 57.7----
2026-09-02 10:00 amSSE 5.1 5.1----30.20+0.00- 57.7----
2026-09-02 09:54 am SE 4.1 5.1----30.20-- 57.6----
2026-09-02 09:48 am SE 4.1 5.1----30.20- 62.2 57.6----
2026-09-02 09:42 am SE 2.9 4.1----30.19- 62.1 57.6----
2026-09-02 09:36 am SE 4.1 5.1----30.19- 61.7 57.6----
2026-09-02 09:30 amESE 1.9 1.9----30.19- 62.1 57.6----
2026-09-02 09:24 am E 1.0 1.9----30.19- 63.0 57.6----
2026-09-02 09:18 am- 0.0 1.0----30.19-- 57.6----
2026-09-02 09:12 am- 0.0 1.9----30.19-- 57.6----
2026-09-02 09:06 am SE 1.9 2.9----30.19-- 57.6----
2026-09-02 09:00 amSSE 1.9 1.9----30.19+0.00 61.7 57.6----
2026-09-02 08:54 am- 0.0 1.0----30.19- 62.1 57.6----
2026-09-02 08:48 am SE 1.0 1.9----30.19- 61.5 57.6----
2026-09-02 08:42 amESE 1.9 2.9----30.20- 61.0 57.6----
2026-09-02 08:36 am N 1.0 1.9----30.20- 60.4 57.6----
2026-09-02 08:30 am- 0.0 0.0----30.20- 62.2 57.6----
2026-09-02 08:24 am- 0.0 1.0----30.19- 62.6 57.6----
2026-09-02 08:18 am- 0.0 1.0----30.19-- 57.6----
2026-09-02 08:12 am- 0.0 1.9----30.19-- 57.6----
2026-09-02 08:06 am- 0.0 1.9----30.19-- 57.7----
2026-09-02 08:00 amESE 1.9 4.1----30.19+0.01 59.5 57.7----
2026-09-02 07:54 am SE 1.0 2.9----30.19- 59.9 57.7----
2026-09-02 07:48 amSSE 1.9 2.9----30.19-- 57.7----
2026-09-02 07:42 amNNE 1.0 1.9----30.19-- 57.7----
2026-09-02 07:36 amSSE 1.0 1.9----30.19-- 57.7----
2026-09-02 07:30 am E 1.9 2.9----30.19- 59.7 57.7----
2026-09-02 07:24 am- 0.0 1.9----30.19- 61.2 57.7----
2026-09-02 07:18 am- 0.0 1.9----30.20-- 57.7----
2026-09-02 07:12 amESE 1.9 2.9----30.19-- 57.7----
2026-09-02 07:06 am- 0.0 1.0----30.20-- 57.7----
2026-09-02 07:00 am- 0.0 1.0----30.20+0.03 59.4 57.7----
2026-09-02 06:54 am W 1.0 1.9----30.19- 58.6 57.6----
2026-09-02 06:48 am- 0.0 1.0----30.19- 58.8 57.7----
2026-09-02 06:42 am- 0.0 1.0----30.19- 59.9 57.7----
2026-09-02 06:36 amWSW 1.0 1.9----30.19- 58.6 57.7----
2026-09-02 06:30 am W 1.0 1.9----30.19- 58.1 57.7----
2026-09-02 06:24 am S 1.0 1.9----30.19- 58.3 57.7----
2026-09-02 06:18 amWSW 1.9 1.9----30.19-- 57.6----
2026-09-02 06:12 am- 0.0 0.0----30.19-- 57.6----
2026-09-02 06:06 am- 0.0 0.0----30.19-- 57.6----
2026-09-02 06:00 am- 0.0 1.9----30.19+0.03 56.5 57.6----
2026-09-02 05:54 am SW 1.9 2.9----30.19- 56.1 57.6----
2026-09-02 05:48 am SW 1.9 1.9----30.18- 56.3 57.6----
2026-09-02 05:42 am S 1.0 1.9----30.18- 56.7 57.6----
2026-09-02 05:36 am- 0.0 1.0----30.18- 56.5 57.6----
2026-09-02 05:30 am- 0.0 1.0----30.18- 56.1 57.6----
2026-09-02 05:24 am- 0.0 1.0----30.18- 56.1 57.6----
2026-09-02 05:18 am- 0.0 1.9----30.18-- 57.6----
2026-09-02 05:12 amNNW 1.0 1.0----30.18-- 57.6----
2026-09-02 05:06 am W 1.0 1.9----30.18-- 57.6----
2026-09-02 05:00 am W 1.0 1.9----30.18+0.03 56.7 57.6----
2026-09-02 04:54 am NW 1.0 1.9----30.18- 56.5 57.6----
2026-09-02 04:48 amWNW 1.0 1.9----30.18- 56.7 57.6----
2026-09-02 04:42 am W 1.9 2.9----30.17- 57.0 57.6----
2026-09-02 04:36 amWSW 1.9 1.9----30.17- 56.7 57.6----
2026-09-02 04:30 amWNW 1.0 1.9----30.17- 56.3 57.6----
2026-09-02 04:24 am- 0.0 1.9----30.17- 56.3 57.6----
2026-09-02 04:18 am NW 1.0 1.9----30.18- 56.5 57.6----
2026-09-02 04:12 amWNW 1.0 2.9----30.17- 56.5 57.6----
2026-09-02 04:06 am W 1.9 2.9----30.17- 56.7 57.6----
2026-09-02 04:00 amWNW 1.9 1.9----30.17+0.02 56.3 57.6----
2026-09-02 03:54 amWNW 1.9 1.9----30.17- 56.3 57.6----
2026-09-02 03:48 amWNW 1.0 1.9----30.16-- 57.6----
2026-09-02 03:42 amWNW 1.9 1.9----30.16-- 57.6----
2026-09-02 03:36 amWNW 1.9 1.9----30.16-- 57.6----
2026-09-02 03:30 amWNW 1.9 1.9----30.16- 57.2 57.6----
2026-09-02 03:24 am- 0.0 0.0----30.16- 57.2 57.4----
2026-09-02 03:18 am- 0.0 1.0----30.16-- 57.4----
2026-09-02 03:12 am- 0.0 1.0----30.16-- 57.4----
2026-09-02 03:06 am- 0.0 1.9----30.16-- 57.6----
2026-09-02 03:00 am- 0.0 1.0----30.16+0.02 57.6 57.6----
2026-09-02 02:54 am- 0.0 1.0----30.16- 58.1 57.6----
2026-09-02 02:48 am- 0.0 1.0----30.16- 57.9 57.6----
2026-09-02 02:42 am SW 1.0 1.9----30.16- 58.3 57.6----
2026-09-02 02:36 am- 0.0 1.0----30.16- 58.1 57.6----
2026-09-02 02:30 am- 0.0 1.9----30.16- 58.5 57.6----
2026-09-02 02:24 am S 1.9 2.9----30.16- 59.2 57.6----
2026-09-02 02:18 amSSE 1.0 2.9----30.16-- 57.4----
2026-09-02 02:12 am- 0.0 1.0----30.15-- 57.2----
2026-09-02 02:06 am- 0.0 1.9----30.15-- 57.0----
2026-09-02 02:00 am SW 1.0 1.9----30.15+0.04 57.6 56.8----
2026-09-02 01:54 am- 0.0 1.0----30.15- 57.0 56.7----
2026-09-02 01:48 am- 0.0 1.0----30.15- 57.0 56.7----
2026-09-02 01:42 am- 0.0 0.0----30.15- 57.2 56.7----
2026-09-02 01:36 am- 0.0 1.0----30.15- 57.2 56.7----
2026-09-02 01:30 am- 0.0 1.0----30.15- 57.4 56.7----
2026-09-02 01:24 am- 0.0 1.0----30.15- 57.2 56.7----
2026-09-02 01:18 am- 0.0 1.0----30.15-- 56.7----
2026-09-02 01:12 am- 0.0 1.0----30.15-- 56.7----
2026-09-02 01:06 am- 0.0 1.0----30.15-- 56.7----
2026-09-02 01:00 am- 0.0 1.9----30.14+0.04 57.0 56.8----
2026-09-02 12:54 am- 0.0 1.9----30.14- 56.8 56.8----
2026-09-02 12:48 amWNW 1.0 1.9----30.14- 56.7 57.0----
2026-09-02 12:42 am NW 1.9 1.9----30.14- 56.7 57.2----
2026-09-02 12:36 am- 0.0 1.9----30.14- 56.5 57.4----
2026-09-02 12:30 am NW 1.0 1.0----30.13- 56.5 57.6----
2026-09-02 12:24 amNNW 1.0 1.9----30.13- 56.8 57.6----
2026-09-02 12:18 amWSW 1.9 2.9----30.13-- 57.6----
2026-09-02 12:12 am SW 1.0 2.9----30.13-- 57.7----
2026-09-02 12:06 amWSW 1.9 2.9----30.13-- 57.6----
2026-09-02 12:00 am- 0.0 1.0----30.13+0.03 57.4 57.6----
2026-09-01 11:54 pm S 1.0 1.9----30.13- 57.2 57.4----
2026-09-01 11:48 pmSSE 1.9 5.1----30.13-- 57.4----
2026-09-01 11:42 pm SE 1.0 2.9----30.13-- 57.2----
2026-09-01 11:36 pm- 0.0 1.0----30.12-- 57.2----
2026-09-01 11:30 pm W 1.0 1.9----30.12- 57.2 57.2----
2026-09-01 11:24 pmWNW 1.0 1.0----30.12- 57.0 57.4----
2026-09-01 11:18 pm- 0.0 1.0----30.11-- 57.4----
2026-09-01 11:12 pm- 0.0 1.0----30.11-- 57.7----
2026-09-01 11:06 pm- 0.0 1.0----30.12-- 58.1----
2026-09-01 11:00 pm- 0.0 1.0----30.11+0.01 58.3 58.3----
2026-09-01 10:54 pmWNW 1.0 2.9----30.11- 58.8 58.5----